Bad Axe, MI

6:36 PM EST on February 09, 2016 (GMT -0500)
Huron County Memorial

Weather History for KBAX - June, 2013

Change the Weather History Date:

Monday, June 10, 2013

  Actual Average (KP58) Record (KP58)
Temperature  
Mean Temperature 62 °F -  
Max Temperature 66 °F 64 °F 90 °F (2000)
Min Temperature 56 °F 51 °F 48 °F (2011)
Degree Days  
Heating Degree Days 4    
Growing Degree Days 12 (Base 50)    
Moisture  
Dew Point 61 °F    
Average Humidity 94    
Maximum Humidity 100    
Minimum Humidity 67    
Precipitation  
Precipitation 0.00 in - - ()
Sea Level Pressure  
Sea Level Pressure 29.87 in    
Wind  
Wind Speed 5 mph (East)    
Max Wind Speed 9 mph    
Max Gust Speed 18 mph    
Visibility 5 miles    
Events Rain    
Averages and records for this station are not official NWS values.
T = Trace of Precipitation, MM = Missing Value Source: NWS Daily Summary

Daily Weather History Graph

Daily Weather History Graph

Search for Another Location

Airport or City:

Trip Planner

Search our weather history database for the weather conditions in past years. The results will help you decide how hot, cold, wet, or windy it might be!

Date:

Astronomy

Jun. 10, 2013 Rise Set
Actual Time 5:49 AM EDT 9:13 PM EDT
Civil Twilight 5:13 AM EDT 9:49 PM EDT
Nautical Twilight 4:27 AM EDT 10:36 PM EDT
Astronomical Twilight 3:28 AM EDT 11:35 PM EDT
Moon 7:40 AM EDT (6/10) 10:35 PM EDT (6/10)
Length of Visible Light 16h 35m
Length of Day
15h 23m
Waxing Crescent, 4% of the Moon is Illuminated
Jun 10
Waxing Crescent
Jun 16
First Quarter
Jun 23
Full
Jun 30
Last Quarter
Jul 8
New

Hourly Weather History & Observations

Time (EDT) Temp. Dew Point Humidity Pressure Visibility Wind Dir Wind Speed Gust Speed Precip Events Conditions
12:14 AM 63.7 °F 52.9 °F 68% 30.02 in 10.0 mi ESE 4.6 mph - N/A   Overcast
12:34 AM 64.4 °F 53.2 °F 67% 30.02 in 10.0 mi ESE 4.6 mph - N/A   Overcast
12:54 AM 63.5 °F 53.8 °F 71% 30.01 in 10.0 mi East 4.6 mph - N/A   Mostly Cloudy
1:15 AM 63.9 °F 54.7 °F 72% 30.00 in 10.0 mi East 4.6 mph - N/A   Mostly Cloudy
1:34 AM 64.4 °F 55.4 °F 73% 30.00 in 10.0 mi ESE 4.6 mph - N/A   Mostly Cloudy
1:54 AM 64.4 °F 55.4 °F 73% 29.99 in 10.0 mi ESE 5.8 mph - N/A   Scattered Clouds
2:15 AM 63.9 °F 55.4 °F 74% 29.97 in 10.0 mi ESE 4.6 mph - N/A   Clear
2:34 AM 63.5 °F 55.4 °F 75% 29.97 in 10.0 mi ESE 5.8 mph - N/A   Clear
2:54 AM 63.5 °F 55.0 °F 74% 29.97 in 10.0 mi ESE 6.9 mph - N/A   Scattered Clouds
3:15 AM 63.7 °F 54.9 °F 73% 29.96 in 10.0 mi ESE 5.8 mph - N/A   Overcast
3:34 AM 63.7 °F 54.9 °F 73% 29.95 in 10.0 mi ESE 5.8 mph - N/A   Overcast
3:54 AM 63.1 °F 54.9 °F 74% 29.95 in 10.0 mi SE 4.6 mph - N/A   Mostly Cloudy
4:15 AM 62.6 °F 54.9 °F 76% 29.95 in 10.0 mi SE 4.6 mph - N/A   Scattered Clouds
4:34 AM 62.2 °F 55.0 °F 77% 29.95 in 10.0 mi SE 6.9 mph - N/A   Mostly Cloudy
4:54 AM 61.0 °F 55.9 °F 83% 29.94 in 10.0 mi SE 5.8 mph - N/A Rain Light Rain
5:14 AM 59.5 °F 57.0 °F 91% 29.94 in 7.0 mi SE 3.5 mph - N/A Rain Light Rain
5:34 AM 59.0 °F 57.4 °F 94% 29.94 in 10.0 mi ESE 4.6 mph - N/A Rain Light Rain
5:54 AM 59.0 °F 57.6 °F 95% 29.92 in 7.0 mi East 3.5 mph - N/A Rain Light Rain
6:15 AM 59.0 °F 57.9 °F 96% 29.92 in 7.0 mi East 4.6 mph - N/A Rain Rain
6:34 AM 58.6 °F 58.1 °F 98% 29.92 in 3.0 mi SE 4.6 mph - N/A Rain Rain
6:54 AM 59.2 °F 59.2 °F 100% 29.93 in 2.0 mi SE 3.5 mph - N/A Rain Rain
7:14 AM 59.4 °F 59.4 °F 100% 29.92 in 2.0 mi Calm Calm - N/A Rain Rain
7:34 AM 59.9 °F 59.9 °F 100% 29.92 in 2.0 mi SSE 3.5 mph - N/A Rain Rain
7:55 AM 61.0 °F 61.0 °F 100% 29.91 in 2.5 mi SE 4.6 mph - N/A Rain Rain
8:14 AM 61.7 °F 61.7 °F 100% 29.90 in 2.5 mi East 5.8 mph - N/A Rain Light Rain
8:35 AM 62.6 °F 62.6 °F 100% 29.89 in 4.0 mi ESE 8.1 mph - N/A   Light Drizzle
8:54 AM 62.1 °F 62.1 °F 100% 29.89 in 5.0 mi ESE 6.9 mph 18.4 mph N/A   Overcast
9:14 AM 61.9 °F 61.9 °F 100% 29.89 in 5.0 mi ESE 5.8 mph - N/A   Overcast
9:35 AM 61.9 °F 61.9 °F 100% 29.89 in 5.0 mi ESE 6.9 mph - N/A   Overcast
9:54 AM 61.7 °F 61.7 °F 100% 29.88 in 4.0 mi ESE 6.9 mph - N/A   Light Drizzle
10:14 AM 62.6 °F 62.6 °F 100% 29.87 in 4.0 mi SE 6.9 mph - N/A   Overcast
10:35 AM 63.0 °F 63.0 °F 100% 29.87 in 4.0 mi ESE 5.8 mph - N/A   Overcast
10:54 AM 64.4 °F 64.4 °F 100% 29.86 in 4.0 mi ESE 5.8 mph - N/A   Overcast
11:14 AM 63.9 °F 63.7 °F 99% 29.86 in 4.0 mi ESE 6.9 mph 17.3 mph N/A   Overcast
11:35 AM 63.7 °F 63.7 °F 100% 29.86 in 3.0 mi SE 4.6 mph - N/A   Overcast
11:54 AM 63.7 °F 63.7 °F 100% 29.85 in 2.5 mi SE 9.2 mph - N/A Rain Light Rain
12:14 PM 63.5 °F 63.5 °F 100% 29.86 in 2.5 mi SE 6.9 mph - N/A Rain Rain
12:35 PM 63.5 °F 63.5 °F 100% 29.85 in 2.5 mi ESE 6.9 mph - N/A   Light Drizzle
12:54 PM 63.7 °F 63.7 °F 100% 29.85 in 2.5 mi SE 6.9 mph - N/A   Drizzle
1:14 PM 64.0 °F 64.0 °F 100% 29.84 in 2.5 mi ESE 3.5 mph - N/A   Drizzle
1:35 PM 64.8 °F 64.8 °F 100% 29.84 in 3.0 mi ESE 3.5 mph - N/A   Light Drizzle
1:54 PM 65.3 °F 65.3 °F 100% 29.83 in 4.0 mi ESE 4.6 mph - N/A Rain Light Rain
2:14 PM 66.0 °F 66.0 °F 100% 29.83 in 7.0 mi SE 6.9 mph - N/A   Overcast
2:35 PM 66.0 °F 65.3 °F 98% 29.82 in 10.0 mi SE 6.9 mph - N/A   Overcast
2:54 PM 66.4 °F 65.1 °F 96% 29.82 in 10.0 mi ESE 5.8 mph - N/A   Overcast
3:15 PM 65.8 °F 64.4 °F 95% 29.82 in 10.0 mi ESE 5.8 mph - N/A   Overcast
3:35 PM 66.0 °F 64.4 °F 94% 29.81 in 7.0 mi SE 5.8 mph - N/A   Overcast
3:54 PM 65.7 °F 64.6 °F 96% 29.81 in 5.0 mi ESE 3.5 mph - N/A   Overcast
4:15 PM 65.5 °F 64.8 °F 98% 29.81 in 5.0 mi Calm Calm - N/A   Overcast
4:35 PM 66.4 °F 65.7 °F 98% 29.79 in 5.0 mi ESE 4.6 mph - N/A   Overcast
4:54 PM 66.0 °F 64.9 °F 96% 29.80 in 5.0 mi ESE 4.6 mph - N/A   Overcast
5:15 PM 65.3 °F 64.6 °F 98% 29.80 in 4.0 mi East 3.5 mph - N/A   Overcast
5:35 PM 65.3 °F 64.9 °F 99% 29.79 in 4.0 mi East 4.6 mph - N/A   Light Drizzle
5:54 PM 65.3 °F 65.3 °F 100% 29.79 in 2.5 mi East 3.5 mph - N/A   Overcast
6:15 PM 65.5 °F 65.5 °F 100% 29.79 in 1.8 mi Calm Calm - N/A Rain Light Rain
6:35 PM 65.5 °F 65.5 °F 100% 29.78 in 1.8 mi NE 4.6 mph - N/A   Drizzle
6:54 PM 64.9 °F 64.9 °F 100% 29.78 in 2.5 mi ENE 4.6 mph - N/A   Drizzle
7:15 PM 64.6 °F 64.6 °F 100% 29.78 in 5.0 mi NE 5.8 mph - N/A   Light Drizzle
7:34 PM 64.2 °F 64.2 °F 100% 29.78 in 5.0 mi NE 4.6 mph - N/A   Light Drizzle
7:54 PM 63.1 °F 63.1 °F 100% 29.78 in 2.0 mi NE 6.9 mph - N/A   Light Drizzle
8:15 PM 62.6 °F 62.6 °F 100% 29.78 in 2.5 mi North 5.8 mph - N/A Rain Light Rain
8:34 PM 61.5 °F 61.5 °F 100% 29.78 in 3.0 mi North 4.6 mph - N/A   Drizzle
8:55 PM 60.8 °F 60.8 °F 100% 29.79 in 5.0 mi NNE 4.6 mph - N/A   Light Drizzle
9:15 PM 60.1 °F 60.1 °F 100% 29.78 in 2.0 mi NNE 3.5 mph - N/A Rain Rain
9:34 PM 59.9 °F 59.9 °F 100% 29.78 in 3.0 mi North 4.6 mph - N/A   Light Drizzle
9:55 PM 59.0 °F 59.0 °F 100% 29.79 in 5.0 mi North 4.6 mph - N/A   Light Drizzle
10:14 PM 58.8 °F 58.8 °F 100% 29.79 in 3.0 mi North 3.5 mph - N/A   Heavy Drizzle
10:34 PM 58.5 °F 58.5 °F 100% 29.79 in 4.0 mi North 3.5 mph - N/A   Drizzle
10:55 PM 58.5 °F 58.5 °F 100% 29.79 in 5.0 mi North 4.6 mph - N/A   Overcast
11:14 PM 58.3 °F 58.3 °F 100% 29.79 in 4.0 mi NNW 5.8 mph - N/A   Overcast
11:34 PM 57.2 °F 57.2 °F 100% 29.79 in 2.5 mi NNW 3.5 mph - N/A   Overcast
11:54 PM 56.5 °F 56.5 °F 100% 29.79 in 2.5 mi North 4.6 mph - N/A   Overcast